createdAt,value
2019-05-05T00:01:45.793Z,6.62
2019-05-05T00:04:24.187Z,6.28
2019-05-05T00:06:54.921Z,4.80
2019-05-05T00:09:25.270Z,7.15
2019-05-05T00:14:35.104Z,5.83
2019-05-05T00:17:14.454Z,6.97
2019-05-05T00:19:45.447Z,6.17
2019-05-05T00:22:15.252Z,5.42
2019-05-05T00:24:44.509Z,5.85
2019-05-05T00:27:14.967Z,5.95
2019-05-05T00:29:45.330Z,5.62
2019-05-05T00:32:15.319Z,5.67
2019-05-05T00:34:44.836Z,5.60
2019-05-05T00:37:15.159Z,4.97
2019-05-05T00:39:45.324Z,5.70
2019-05-05T00:42:15.538Z,5.67
2019-05-05T00:44:44.920Z,5.20
2019-05-05T00:47:39.925Z,5.30
2019-05-05T00:50:11.466Z,4.50
2019-05-05T00:52:40.805Z,5.22
2019-05-05T00:55:10.125Z,4.78
2019-05-05T00:57:39.359Z,4.97
2019-05-05T01:00:15.196Z,4.95
2019-05-05T01:02:49.031Z,4.35
2019-05-05T01:05:40.528Z,5.83
2019-05-05T01:08:15.087Z,6.12
2019-05-05T01:10:44.437Z,4.45
2019-05-05T01:13:15.211Z,5.60
2019-05-05T01:15:44.927Z,4.30
2019-05-05T01:18:15.282Z,5.05
2019-05-05T01:20:44.944Z,5.10
2019-05-05T01:23:15.092Z,4.85
2019-05-05T01:25:47.135Z,5.25
2019-05-05T01:28:16.596Z,6.60
2019-05-05T01:30:48.545Z,5.00
2019-05-05T01:33:35.560Z,4.35
2019-05-05T01:36:05.478Z,4.47
2019-05-05T01:38:41.487Z,4.72
2019-05-05T01:41:29.624Z,5.45
2019-05-05T01:43:59.465Z,5.50
2019-05-05T01:46:29.345Z,4.17
2019-05-05T01:48:59.240Z,5.62
2019-05-05T01:51:29.301Z,4.30
2019-05-05T01:53:59.192Z,4.97
2019-05-05T01:56:28.728Z,5.05
2019-05-05T01:58:58.085Z,4.75
2019-05-05T02:01:27.844Z,4.15
2019-05-05T02:03:57.660Z,4.80
2019-05-05T02:06:27.553Z,4.12
2019-05-05T02:08:57.509Z,4.40
2019-05-05T02:11:26.874Z,4.33
2019-05-05T02:13:56.103Z,4.30
2019-05-05T02:16:25.977Z,5.08
2019-05-05T02:18:56.084Z,4.05
2019-05-05T02:21:26.038Z,4.10
2019-05-05T02:23:55.930Z,4.33
2019-05-05T02:26:25.934Z,4.45
2019-05-05T02:29:17.589Z,4.05
2019-05-05T02:32:06.222Z,6.40
2019-05-05T02:34:40.271Z,4.78
2019-05-05T02:37:09.700Z,4.25
2019-05-05T02:39:45.018Z,3.98
2019-05-05T02:42:11.276Z,4.53
2019-05-05T02:44:45.222Z,4.78
2019-05-05T02:47:25.459Z,4.50
2019-05-05T02:49:55.058Z,3.27
2019-05-05T02:52:25.101Z,3.72
2019-05-05T02:54:54.597Z,3.80
2019-05-05T02:57:24.053Z,3.60
2019-05-05T03:00:01.657Z,4.10
2019-05-05T03:02:35.290Z,4.22
2019-05-05T03:05:05.562Z,4.95
2019-05-05T03:07:36.926Z,3.80
2019-05-05T03:10:07.826Z,3.02
2019-05-05T03:12:38.721Z,3.58
2019-05-05T03:15:08.405Z,3.72
2019-05-05T03:17:38.447Z,3.65
2019-05-05T03:20:08.076Z,3.08
2019-05-05T03:22:37.734Z,3.60
2019-05-05T03:25:07.571Z,4.00
2019-05-05T03:27:37.602Z,3.08
2019-05-05T03:30:08.897Z,4.28
2019-05-05T03:32:38.333Z,2.67
2019-05-05T03:35:08.259Z,2.83
2019-05-05T03:37:37.712Z,3.45
2019-05-05T03:40:17.708Z,3.70
2019-05-05T03:42:57.922Z,3.05
2019-05-05T03:45:34.060Z,3.15
2019-05-05T03:48:04.607Z,4.15
2019-05-05T03:50:34.672Z,3.50
2019-05-05T03:53:05.008Z,3.08
2019-05-05T03:55:34.825Z,5.90
2019-05-05T03:58:04.655Z,4.15
2019-05-05T04:01:23.896Z,4.17
2019-05-05T04:03:54.096Z,3.60
2019-05-05T04:06:38.721Z,4.10
2019-05-05T04:09:10.361Z,4.00
2019-05-05T04:11:40.482Z,3.35
2019-05-05T04:14:09.799Z,3.87
2019-05-05T04:16:54.173Z,4.05
2019-05-05T04:19:24.344Z,3.37
2019-05-05T04:21:56.680Z,2.70
2019-05-05T04:24:25.904Z,3.20
2019-05-05T04:26:55.147Z,3.98
2019-05-05T04:29:24.487Z,3.50
2019-05-05T04:31:54.304Z,3.17
2019-05-05T04:34:24.173Z,4.58
2019-05-05T04:36:54.644Z,4.05
2019-05-05T04:39:24.451Z,3.42
2019-05-05T04:41:57.061Z,3.67
2019-05-05T04:44:26.278Z,3.77
2019-05-05T04:46:59.444Z,3.42
2019-05-05T04:49:47.889Z,3.35
2019-05-05T04:52:18.286Z,3.40
2019-05-05T04:54:50.101Z,3.58
2019-05-05T04:57:19.953Z,3.70
2019-05-05T04:59:54.034Z,3.08
2019-05-05T05:02:47.956Z,3.62
2019-05-05T05:05:31.368Z,3.37
2019-05-05T05:08:00.732Z,3.17
2019-05-05T05:10:30.868Z,2.83
2019-05-05T05:13:00.125Z,3.60
2019-05-05T05:15:29.865Z,3.15
2019-05-05T05:18:06.005Z,3.20
2019-05-05T05:20:35.256Z,3.12
2019-05-05T05:23:04.487Z,3.00
2019-05-05T05:25:34.637Z,2.55
2019-05-05T05:28:04.726Z,3.08
2019-05-05T05:30:34.857Z,3.15
2019-05-05T05:33:04.924Z,3.67
2019-05-05T05:35:34.881Z,4.00
2019-05-05T05:38:04.818Z,3.20
2019-05-05T05:40:41.300Z,2.60
2019-05-05T05:43:14.013Z,3.22
2019-05-05T05:46:05.169Z,3.25
2019-05-05T05:48:43.512Z,3.58
2019-05-05T05:51:15.613Z,3.72
2019-05-05T05:53:44.976Z,3.25
2019-05-05T05:56:14.204Z,3.33
2019-05-05T05:58:44.194Z,2.55
2019-05-05T06:01:14.664Z,3.08
2019-05-05T06:03:44.665Z,2.40
2019-05-05T06:06:14.537Z,2.58
2019-05-05T06:08:44.368Z,3.10
2019-05-05T06:11:13.809Z,2.77
2019-05-05T06:13:44.426Z,2.95
2019-05-05T06:16:14.680Z,3.10
2019-05-05T06:18:43.979Z,3.22
2019-05-05T06:21:13.747Z,3.50
2019-05-05T06:23:43.825Z,2.80
2019-05-05T06:26:15.200Z,2.67
2019-05-05T06:28:44.851Z,3.62
2019-05-05T06:31:14.525Z,2.98
2019-05-05T06:33:43.944Z,3.42
2019-05-05T06:36:14.162Z,2.92
2019-05-05T06:38:44.336Z,3.05
2019-05-05T06:41:23.782Z,3.30
2019-05-05T06:44:21.926Z,2.87
2019-05-05T06:47:13.375Z,2.50
2019-05-05T06:49:43.795Z,3.20
2019-05-05T06:52:14.298Z,2.80
2019-05-05T06:54:43.949Z,3.33
2019-05-05T06:57:13.949Z,2.80
2019-05-05T06:59:44.039Z,2.73
2019-05-05T07:02:14.578Z,3.20
2019-05-05T07:04:44.576Z,3.05
2019-05-05T07:07:14.622Z,3.70
2019-05-05T07:09:44.343Z,3.12
2019-05-05T07:12:14.240Z,3.70
2019-05-05T07:14:44.511Z,3.15
2019-05-05T07:17:14.614Z,2.37
2019-05-05T07:19:45.118Z,3.77
2019-05-05T07:22:17.598Z,3.85
2019-05-05T07:24:46.449Z,3.83
2019-05-05T07:27:16.408Z,3.72
2019-05-05T07:29:46.490Z,4.17
2019-05-05T07:32:16.292Z,3.60
2019-05-05T07:35:04.047Z,4.35
2019-05-05T07:37:34.425Z,4.23
2019-05-05T07:40:05.481Z,4.37
2019-05-05T07:42:35.153Z,3.93
2019-05-05T07:45:18.951Z,4.12
2019-05-05T07:47:36.272Z,3.97
2019-05-05T07:50:05.740Z,4.67
2019-05-05T07:52:35.807Z,5.20
2019-05-05T07:55:05.923Z,5.00
2019-05-05T07:57:35.717Z,4.60
2019-05-05T08:00:07.372Z,5.37
2019-05-05T08:02:36.738Z,5.10
2019-05-05T08:05:06.280Z,6.40
2019-05-05T08:07:36.534Z,6.03
2019-05-05T08:10:05.877Z,6.67
2019-05-05T08:12:35.573Z,6.43
2019-05-05T08:15:05.758Z,6.40
2019-05-05T08:18:04.608Z,7.00
2019-05-05T08:20:37.548Z,5.70
2019-05-05T08:23:10.330Z,6.63
2019-05-05T08:25:49.262Z,6.47
2019-05-05T08:28:29.200Z,7.30
2019-05-05T08:31:07.305Z,6.00
2019-05-05T08:33:36.777Z,7.37
2019-05-05T08:36:06.535Z,7.00
2019-05-05T08:38:36.417Z,6.77
2019-05-05T08:41:06.368Z,7.40
2019-05-05T08:43:36.530Z,6.93
2019-05-05T08:46:06.426Z,7.07
2019-05-05T08:48:36.393Z,6.23
2019-05-05T08:51:06.441Z,7.03
2019-05-05T08:53:44.996Z,8.17
2019-05-05T08:56:07.560Z,7.07
2019-05-05T08:58:36.799Z,8.30
2019-05-05T09:01:06.028Z,8.00
2019-05-05T09:03:35.283Z,8.80
2019-05-05T09:06:05.040Z,8.87
2019-05-05T09:08:34.811Z,8.17
2019-05-05T09:11:04.955Z,9.07
2019-05-05T09:13:35.912Z,9.67
2019-05-05T09:16:05.349Z,7.73
2019-05-05T09:18:37.457Z,9.87
2019-05-05T09:21:06.812Z,8.63
2019-05-05T09:23:37.949Z,9.17
2019-05-05T09:26:26.155Z,10.67
2019-05-05T09:29:17.601Z,8.23
2019-05-05T09:31:47.362Z,7.87
2019-05-05T09:34:16.762Z,7.67
2019-05-05T09:36:45.993Z,9.10
2019-05-05T09:39:15.792Z,8.10
2019-05-05T09:41:45.605Z,7.87
2019-05-05T09:44:14.972Z,7.97
2019-05-05T09:46:44.708Z,8.87
2019-05-05T09:49:14.230Z,9.10
2019-05-05T09:51:44.117Z,7.20
2019-05-05T09:54:16.703Z,7.13
2019-05-05T09:56:45.852Z,6.47
2019-05-05T09:59:15.292Z,6.07
2019-05-05T10:01:45.372Z,5.80
2019-05-05T10:04:15.180Z,6.03
2019-05-05T10:06:47.721Z,6.63
2019-05-05T10:09:15.529Z,6.30
2019-05-05T10:11:45.477Z,5.77
2019-05-05T10:14:15.546Z,6.13
2019-05-05T10:16:45.445Z,5.07
2019-05-05T10:19:15.428Z,5.00
2019-05-05T10:21:44.776Z,5.40
2019-05-05T10:24:30.098Z,5.30
2019-05-05T10:26:54.217Z,5.30
2019-05-05T10:29:23.769Z,4.37
2019-05-05T10:31:53.916Z,5.30
2019-05-05T10:34:24.272Z,4.83
2019-05-05T10:36:54.185Z,4.17
2019-05-05T10:39:30.641Z,4.80
2019-05-05T10:41:59.996Z,3.90
2019-05-05T10:44:29.256Z,4.90
2019-05-05T10:46:58.473Z,4.10
2019-05-05T10:49:28.252Z,4.07
2019-05-05T10:51:57.600Z,4.00
2019-05-05T10:54:40.728Z,3.67
2019-05-05T10:56:58.299Z,3.73
2019-05-05T10:59:27.662Z,4.43
2019-05-05T11:01:56.965Z,4.17
2019-05-05T11:04:26.978Z,5.10
2019-05-05T11:06:56.475Z,4.10
2019-05-05T11:09:25.792Z,3.07
2019-05-05T11:11:55.089Z,3.43
2019-05-05T11:14:24.854Z,3.53
2019-05-05T11:16:54.799Z,3.20
2019-05-05T11:19:25.030Z,3.67
2019-05-05T11:21:54.993Z,3.73
2019-05-05T11:24:25.131Z,3.50
2019-05-05T11:26:54.477Z,3.07
2019-05-05T11:29:24.193Z,2.23
2019-05-05T11:31:53.597Z,3.30
2019-05-05T11:34:26.996Z,3.50
2019-05-05T11:37:11.396Z,2.67
2019-05-05T11:39:41.098Z,3.90
2019-05-05T11:42:10.548Z,3.67
2019-05-05T11:44:39.813Z,3.97
2019-05-05T11:47:09.121Z,5.17
2019-05-05T11:49:38.385Z,3.70
2019-05-05T11:52:08.169Z,4.50
2019-05-05T11:54:37.981Z,4.07
2019-05-05T11:57:07.814Z,4.27
2019-05-05T11:59:37.689Z,3.33
2019-05-05T12:02:07.521Z,2.90
2019-05-05T12:04:36.923Z,3.13
2019-05-05T12:07:06.164Z,3.27
2019-05-05T12:09:45.704Z,3.17
2019-05-05T12:12:15.101Z,3.63
2019-05-05T12:14:45.873Z,3.23
2019-05-05T12:17:18.170Z,1.57
2019-05-05T12:19:48.583Z,2.50
2019-05-05T12:22:18.129Z,3.73
2019-05-05T12:24:48.934Z,2.10
2019-05-05T12:27:29.525Z,3.10
2019-05-05T12:30:03.761Z,2.60
2019-05-05T12:32:34.816Z,3.30
2019-05-05T12:35:05.016Z,3.10
2019-05-05T12:37:35.121Z,3.00
2019-05-05T12:40:07.609Z,3.30
2019-05-05T12:42:37.025Z,2.13
2019-05-05T12:45:09.585Z,2.60
2019-05-05T12:47:58.551Z,2.33
2019-05-05T12:50:27.969Z,2.67
2019-05-05T12:52:57.270Z,3.37
2019-05-05T12:55:38.957Z,3.20
2019-05-05T12:57:58.184Z,3.90
2019-05-05T13:00:27.488Z,2.40
2019-05-05T13:02:57.353Z,3.90
2019-05-05T13:05:26.714Z,3.77
2019-05-05T13:07:56.010Z,3.50
2019-05-05T13:10:26.303Z,3.90
2019-05-05T13:12:56.221Z,3.50
2019-05-05T13:15:25.739Z,3.50
2019-05-05T13:17:55.552Z,4.53
2019-05-05T13:20:34.489Z,4.03
2019-05-05T13:23:36.453Z,4.50
2019-05-05T13:26:25.369Z,4.80
2019-05-05T13:28:54.736Z,3.90
2019-05-05T13:31:24.521Z,3.80
2019-05-05T13:33:54.802Z,3.17
2019-05-05T13:36:24.732Z,3.53
2019-05-05T13:38:54.697Z,3.23
2019-05-05T13:41:24.525Z,3.03
2019-05-05T13:43:55.970Z,2.63
2019-05-05T13:46:27.560Z,2.87
2019-05-05T13:49:17.301Z,3.20
2019-05-05T13:51:47.061Z,2.87
2019-05-05T13:54:17.024Z,2.60
2019-05-05T13:56:46.385Z,2.40
2019-05-05T13:59:15.625Z,2.80
2019-05-05T14:01:45.414Z,3.00
2019-05-05T14:04:14.861Z,2.07
2019-05-05T14:06:46.337Z,2.13
2019-05-05T14:09:15.887Z,2.40
2019-05-05T14:11:45.623Z,3.13
2019-05-05T14:14:15.456Z,2.13
2019-05-05T14:16:45.301Z,2.37
2019-05-05T14:19:15.225Z,2.67
2019-05-05T14:21:45.308Z,2.53
2019-05-05T14:24:27.808Z,2.53
2019-05-05T14:26:57.160Z,2.53
2019-05-05T14:29:41.181Z,2.77
2019-05-05T14:32:13.509Z,2.83
2019-05-05T14:34:46.054Z,3.47
2019-05-05T14:37:31.262Z,3.03
2019-05-05T14:40:00.501Z,3.03
2019-05-05T14:42:30.261Z,3.10
2019-05-05T14:45:00.668Z,2.60
2019-05-05T14:47:30.196Z,2.73
2019-05-05T14:49:59.443Z,2.57
2019-05-05T14:52:28.781Z,2.90
2019-05-05T14:54:58.473Z,3.30
2019-05-05T14:57:28.391Z,3.83
2019-05-05T14:59:58.309Z,2.40
2019-05-05T15:02:28.317Z,2.07
2019-05-05T15:05:00.153Z,2.80
2019-05-05T15:07:44.427Z,2.67
2019-05-05T15:10:43.996Z,1.73
2019-05-05T15:13:14.820Z,2.90
2019-05-05T15:15:45.048Z,1.93
2019-05-05T15:18:14.892Z,2.10
2019-05-05T15:20:44.853Z,1.77
2019-05-05T15:23:14.731Z,2.30
2019-05-05T15:25:44.634Z,1.93
2019-05-05T15:28:16.863Z,1.83
2019-05-05T15:30:46.174Z,2.20
2019-05-05T15:33:15.402Z,1.87
2019-05-05T15:35:46.557Z,1.80
2019-05-05T15:38:16.309Z,1.80
2019-05-05T15:40:48.059Z,1.93
2019-05-05T15:43:17.319Z,1.83
2019-05-05T15:45:46.945Z,2.13
2019-05-05T15:48:16.963Z,3.37
2019-05-05T15:50:46.313Z,2.07
2019-05-05T15:53:15.540Z,3.20
2019-05-05T15:55:44.808Z,2.40
2019-05-05T15:58:14.512Z,2.63
2019-05-05T16:00:44.384Z,3.43
2019-05-05T16:03:13.803Z,2.93
2019-05-05T16:05:43.666Z,3.40
2019-05-05T16:08:14.125Z,2.90
2019-05-05T16:10:46.587Z,3.20
2019-05-05T16:13:15.404Z,3.30
2019-05-05T16:16:05.387Z,3.20
2019-05-05T16:18:48.398Z,3.93
2019-05-05T16:21:54.411Z,3.63
2019-05-05T16:24:26.628Z,3.80
2019-05-05T16:26:56.340Z,3.23
2019-05-05T16:29:25.657Z,3.33
2019-05-05T16:31:55.443Z,3.93
2019-05-05T16:34:25.353Z,3.83
2019-05-05T16:36:57.004Z,3.03
2019-05-05T16:39:25.849Z,3.37
2019-05-05T16:41:55.729Z,3.90
2019-05-05T16:44:25.138Z,3.13
2019-05-05T16:46:57.232Z,3.00
2019-05-05T16:49:25.867Z,3.43
2019-05-05T16:52:04.134Z,2.90
2019-05-05T16:54:42.484Z,2.47
2019-05-05T16:57:14.276Z,2.20
2019-05-05T16:59:44.194Z,3.70
2019-05-05T17:02:14.305Z,2.50
2019-05-05T17:04:44.128Z,2.33
2019-05-05T17:07:14.264Z,2.83
2019-05-05T17:09:43.824Z,2.80
2019-05-05T17:12:14.135Z,2.73
2019-05-05T17:14:58.390Z,2.67
2019-05-05T17:17:49.707Z,2.77
2019-05-05T17:20:22.092Z,2.77
2019-05-05T17:23:11.017Z,2.30
2019-05-05T17:25:40.723Z,3.43
2019-05-05T17:28:10.146Z,2.70
2019-05-05T17:30:39.481Z,2.37
2019-05-05T17:33:09.166Z,3.00
2019-05-05T17:35:38.989Z,2.80
2019-05-05T17:38:11.275Z,2.77
2019-05-05T17:40:59.279Z,2.93
2019-05-05T17:43:44.813Z,2.60
2019-05-05T17:46:26.043Z,2.43
2019-05-05T17:49:09.892Z,2.53
2019-05-05T17:51:49.518Z,2.70
2019-05-05T17:54:25.080Z,2.10
2019-05-05T17:56:55.152Z,2.10
2019-05-05T17:59:24.532Z,2.90
2019-05-05T18:01:54.298Z,2.00
2019-05-05T18:04:24.185Z,1.80
2019-05-05T18:07:11.281Z,2.40
2019-05-05T18:10:00.976Z,2.33
2019-05-05T18:12:48.448Z,2.20
2019-05-05T18:15:36.045Z,2.13
2019-05-05T18:18:06.534Z,2.13
2019-05-05T18:20:36.387Z,1.67
2019-05-05T18:23:06.363Z,2.30
2019-05-05T18:25:36.229Z,1.97
2019-05-05T18:28:16.133Z,1.90
2019-05-05T18:30:37.184Z,1.70
2019-05-05T18:33:06.424Z,2.43
2019-05-05T18:35:36.265Z,2.37
2019-05-05T18:38:06.158Z,1.67
2019-05-05T18:40:35.518Z,1.97
2019-05-05T18:43:09.844Z,2.40
2019-05-05T18:45:39.196Z,1.77
2019-05-05T18:48:08.461Z,2.53
2019-05-05T18:50:37.790Z,1.90
2019-05-05T18:53:07.188Z,2.93
2019-05-05T18:55:37.009Z,4.63
2019-05-05T18:58:07.961Z,4.60
2019-05-05T19:00:57.533Z,3.37
2019-05-05T19:03:31.257Z,3.83
2019-05-05T19:06:24.026Z,2.97
2019-05-05T19:08:57.115Z,4.10
2019-05-05T19:11:25.660Z,3.27
2019-05-05T19:13:55.451Z,3.23
2019-05-05T19:16:25.536Z,2.50
2019-05-05T19:18:55.767Z,3.07
2019-05-05T19:21:29.452Z,2.33
2019-05-05T19:23:58.718Z,2.80
2019-05-05T19:26:27.936Z,2.43
2019-05-05T19:28:57.764Z,2.60
2019-05-05T19:31:27.633Z,4.37
2019-05-05T19:33:57.036Z,2.93
2019-05-05T19:36:27.544Z,3.20
2019-05-05T19:38:57.132Z,3.33
2019-05-05T19:41:26.357Z,3.57
2019-05-05T19:43:55.632Z,3.00
2019-05-05T19:46:31.132Z,2.90
2019-05-05T19:49:19.640Z,4.67
2019-05-05T19:51:49.341Z,2.73
2019-05-05T19:54:18.734Z,2.63
2019-05-05T19:56:48.550Z,2.53
2019-05-05T19:59:18.365Z,3.43
2019-05-05T20:01:47.771Z,3.00
2019-05-05T20:04:17.110Z,2.63
2019-05-05T20:06:46.821Z,2.80
2019-05-05T20:09:16.231Z,2.47
2019-05-05T20:11:45.900Z,2.80
2019-05-05T20:14:15.393Z,2.73
2019-05-05T20:17:04.515Z,2.30
2019-05-05T20:19:43.790Z,2.23
2019-05-05T20:22:14.609Z,2.93
2019-05-05T20:24:44.541Z,2.77
2019-05-05T20:27:14.283Z,2.00
2019-05-05T20:29:43.886Z,3.00
2019-05-05T20:32:13.961Z,2.60
2019-05-05T20:35:08.337Z,3.07
2019-05-05T20:37:43.168Z,2.73
2019-05-05T20:40:14.654Z,3.00
2019-05-05T20:42:44.814Z,3.87
2019-05-05T20:45:17.676Z,3.47
2019-05-05T20:47:47.053Z,3.30
2019-05-05T20:50:16.888Z,3.90
2019-05-05T20:52:46.255Z,2.90
2019-05-05T20:55:16.010Z,3.40
2019-05-05T20:57:47.019Z,3.40
2019-05-05T21:00:17.201Z,3.57
2019-05-05T21:02:46.534Z,3.10
2019-05-05T21:05:16.284Z,4.07
2019-05-05T21:07:45.763Z,3.20
2019-05-05T21:10:15.067Z,3.43
2019-05-05T21:12:45.660Z,2.83
2019-05-05T21:15:15.860Z,3.77
2019-05-05T21:17:45.220Z,3.13
2019-05-05T21:20:14.653Z,3.30
2019-05-05T21:22:53.946Z,3.40
2019-05-05T21:25:33.751Z,3.40
2019-05-05T21:28:03.985Z,3.73
2019-05-05T21:30:34.061Z,4.23
2019-05-05T21:33:04.496Z,4.20
2019-05-05T21:35:34.843Z,3.80
2019-05-05T21:38:04.939Z,4.17
2019-05-05T21:40:34.680Z,3.50
2019-05-05T21:43:05.186Z,4.30
2019-05-05T21:45:34.967Z,3.67
2019-05-05T21:48:04.600Z,4.00
2019-05-05T21:50:39.717Z,4.03
2019-05-05T21:53:28.315Z,3.83
2019-05-05T21:56:15.719Z,5.63
2019-05-05T21:58:45.830Z,4.97
2019-05-05T22:01:16.984Z,6.20
2019-05-05T22:04:23.522Z,7.83
2019-05-05T22:06:54.069Z,5.40
2019-05-05T22:09:24.248Z,4.87
2019-05-05T22:11:54.506Z,5.57
2019-05-05T22:14:24.408Z,5.93
2019-05-05T22:16:56.117Z,4.30
2019-05-05T22:19:27.386Z,3.70
2019-05-05T22:22:04.651Z,3.63
2019-05-05T22:24:35.734Z,5.00
2019-05-05T22:27:05.453Z,4.37
2019-05-05T22:29:35.301Z,5.30
2019-05-05T22:32:06.272Z,3.77
2019-05-05T22:34:35.804Z,3.67
2019-05-05T22:37:09.256Z,4.57
2019-05-05T22:39:36.628Z,4.87
2019-05-05T22:42:06.525Z,3.80
2019-05-05T22:44:36.413Z,4.20
2019-05-05T22:47:06.377Z,4.60
2019-05-05T22:49:36.176Z,4.50
2019-05-05T22:52:05.993Z,4.90
2019-05-05T22:54:35.797Z,3.80
2019-05-05T22:57:05.692Z,3.97
2019-05-05T22:59:35.568Z,5.03
2019-05-05T23:02:05.020Z,7.53
2019-05-05T23:04:44.552Z,7.37
2019-05-05T23:07:20.169Z,6.73
2019-05-05T23:09:50.096Z,7.03
2019-05-05T23:12:20.237Z,7.07
2019-05-05T23:14:49.597Z,4.63
2019-05-05T23:17:38.019Z,6.17
2019-05-05T23:20:16.279Z,4.73
2019-05-05T23:22:54.724Z,6.67
2019-05-05T23:25:29.248Z,5.53
2019-05-05T23:27:59.061Z,5.00
2019-05-05T23:30:39.385Z,4.97
2019-05-05T23:33:00.468Z,5.43
2019-05-05T23:35:30.277Z,5.03
2019-05-05T23:37:59.613Z,3.70
2019-05-05T23:40:29.433Z,3.90
2019-05-05T23:42:59.500Z,3.30
2019-05-05T23:45:29.632Z,4.28
2019-05-05T23:47:59.525Z,4.03
2019-05-05T23:50:29.396Z,3.72
2019-05-05T23:52:59.213Z,2.60
2019-05-05T23:55:29.027Z,3.13
2019-05-05T23:57:58.389Z,3.30
